createdAt,value
2023-05-22T00:01:51.968Z,11.95
2023-05-22T00:04:21.597Z,13.65
2023-05-22T00:06:49.433Z,13.38
2023-05-22T00:09:16.796Z,13.32
2023-05-22T00:11:43.631Z,13.40
2023-05-22T00:14:10.515Z,12.45
2023-05-22T00:16:37.684Z,13.13
2023-05-22T00:19:04.660Z,13.00
2023-05-22T00:21:35.176Z,13.43
2023-05-22T00:24:02.498Z,13.30
2023-05-22T00:26:29.369Z,12.75
2023-05-22T00:28:56.225Z,12.80
2023-05-22T00:31:23.592Z,13.00
2023-05-22T00:33:50.487Z,13.65
2023-05-22T00:36:18.852Z,14.18
2023-05-22T00:38:46.416Z,13.18
2023-05-22T00:41:13.205Z,12.40
2023-05-22T00:43:40.213Z,15.05
2023-05-22T00:46:10.095Z,12.90
2023-05-22T00:48:36.921Z,12.75
2023-05-22T00:51:03.800Z,12.88
2023-05-22T00:53:30.931Z,12.90
2023-05-22T00:55:57.779Z,12.30
2023-05-22T00:58:26.635Z,13.60
2023-05-22T01:00:53.602Z,13.52
2023-05-22T01:03:26.281Z,13.88
2023-05-22T01:05:54.140Z,13.38
2023-05-22T01:08:21.554Z,13.50
2023-05-22T01:10:48.824Z,13.63
2023-05-22T01:13:20.712Z,13.70
2023-05-22T01:15:57.655Z,13.43
2023-05-22T01:18:30.560Z,14.13
2023-05-22T01:21:25.403Z,13.90
2023-05-22T01:24:19.896Z,13.90
2023-05-22T01:26:49.585Z,14.43
2023-05-22T01:29:36.948Z,15.05
2023-05-22T01:32:03.819Z,14.40
2023-05-22T01:34:30.568Z,14.23
2023-05-22T01:36:57.670Z,14.13
2023-05-22T01:39:24.613Z,13.68
2023-05-22T01:41:51.397Z,12.93
2023-05-22T01:44:18.406Z,12.73
2023-05-22T01:46:45.200Z,14.85
2023-05-22T01:49:12.023Z,14.43
2023-05-22T01:51:40.983Z,14.63
2023-05-22T01:54:22.837Z,15.05
2023-05-22T01:57:29.291Z,13.63
2023-05-22T02:00:07.402Z,13.82
2023-05-22T02:02:34.460Z,14.35
2023-05-22T02:05:01.314Z,14.13
2023-05-22T02:07:28.159Z,14.88
2023-05-22T02:09:56.001Z,14.35
2023-05-22T02:12:25.852Z,14.60
2023-05-22T02:14:52.762Z,14.45
2023-05-22T02:17:20.528Z,17.90
2023-05-22T02:19:47.406Z,15.13
2023-05-22T02:22:14.273Z,16.20
2023-05-22T02:24:46.522Z,15.25
2023-05-22T02:27:13.382Z,16.08
2023-05-22T02:29:40.554Z,15.30
2023-05-22T02:32:07.791Z,15.88
2023-05-22T02:34:35.232Z,14.52
2023-05-22T02:37:03.990Z,13.73
2023-05-22T02:39:31.063Z,14.95
2023-05-22T02:41:57.961Z,13.93
2023-05-22T02:44:24.749Z,13.98
2023-05-22T02:46:51.796Z,14.43
2023-05-22T02:49:18.682Z,13.50
2023-05-22T02:51:47.983Z,14.55
2023-05-22T02:54:16.048Z,14.40
2023-05-22T02:56:43.448Z,14.13
2023-05-22T02:59:10.404Z,13.30
2023-05-22T03:01:39.010Z,13.73
2023-05-22T03:04:06.891Z,14.10
2023-05-22T03:06:35.483Z,14.68
2023-05-22T03:09:04.166Z,15.00
2023-05-22T03:11:31.851Z,14.23
2023-05-22T03:13:58.650Z,14.45
2023-05-22T03:16:26.144Z,14.15
2023-05-22T03:19:11.744Z,14.32
2023-05-22T03:21:38.965Z,14.43
2023-05-22T03:24:06.213Z,14.30
2023-05-22T03:26:33.206Z,14.70
2023-05-22T03:29:00.033Z,13.70
2023-05-22T03:31:28.668Z,14.10
2023-05-22T03:33:55.582Z,14.27
2023-05-22T03:36:23.282Z,14.05
2023-05-22T03:38:50.181Z,12.93
2023-05-22T03:41:17.615Z,14.20
2023-05-22T03:43:45.222Z,12.27
2023-05-22T03:46:12.247Z,12.80
2023-05-22T03:48:39.379Z,12.40
2023-05-22T03:51:06.684Z,11.48
2023-05-22T03:53:33.564Z,11.98
2023-05-22T03:56:00.517Z,13.05
2023-05-22T03:58:27.578Z,12.70
2023-05-22T04:00:55.315Z,13.65
2023-05-22T04:03:22.268Z,14.02
2023-05-22T04:05:49.191Z,12.98
2023-05-22T04:08:16.245Z,13.27
2023-05-22T04:10:46.695Z,12.10
2023-05-22T04:13:14.156Z,12.93
2023-05-22T04:15:47.033Z,13.07
2023-05-22T04:18:14.312Z,12.68
2023-05-22T04:20:41.866Z,13.65
2023-05-22T04:23:09.030Z,15.38
2023-05-22T04:25:36.656Z,12.95
2023-05-22T04:28:04.283Z,13.05
2023-05-22T04:30:34.228Z,14.02
2023-05-22T04:33:01.888Z,13.25
2023-05-22T04:35:29.774Z,14.95
2023-05-22T04:37:58.136Z,13.18
2023-05-22T04:40:26.372Z,13.32
2023-05-22T04:42:54.410Z,13.93
2023-05-22T04:45:25.793Z,13.52
2023-05-22T04:47:53.364Z,12.88
2023-05-22T04:50:20.832Z,12.43
2023-05-22T04:52:48.298Z,14.40
2023-05-22T04:55:15.142Z,13.40
2023-05-22T04:57:44.766Z,12.73
2023-05-22T05:02:39.783Z,14.45
2023-05-22T05:05:06.886Z,13.68
2023-05-22T05:07:39.052Z,14.25
2023-05-22T05:10:07.364Z,15.15
2023-05-22T05:12:34.424Z,15.48
2023-05-22T05:15:01.481Z,15.32
2023-05-22T05:17:29.031Z,15.52
2023-05-22T05:19:56.071Z,14.77
2023-05-22T05:22:23.214Z,14.25
2023-05-22T05:24:50.038Z,14.32
2023-05-22T05:27:17.988Z,15.95
2023-05-22T05:29:45.142Z,16.13
2023-05-22T05:32:13.166Z,15.63
2023-05-22T05:34:40.100Z,14.95
2023-05-22T05:37:07.045Z,14.63
2023-05-22T05:39:33.862Z,15.88
2023-05-22T05:42:00.691Z,14.38
2023-05-22T05:44:27.575Z,14.73
2023-05-22T05:46:54.955Z,15.55
2023-05-22T05:49:22.455Z,14.63
2023-05-22T05:51:49.432Z,15.10
2023-05-22T05:54:16.329Z,15.25
2023-05-22T05:56:43.094Z,15.38
2023-05-22T05:59:10.143Z,16.35
2023-05-22T06:01:38.709Z,15.23
2023-05-22T06:04:05.914Z,15.20
2023-05-22T06:06:36.563Z,16.27
2023-05-22T06:09:06.453Z,14.05
2023-05-22T06:11:33.858Z,15.32
2023-05-22T06:14:04.642Z,15.63
2023-05-22T06:16:31.580Z,14.32
2023-05-22T06:18:58.928Z,16.67
2023-05-22T06:21:26.244Z,17.15
2023-05-22T06:23:53.265Z,18.88
2023-05-22T06:26:20.265Z,16.50
2023-05-22T06:28:47.185Z,15.60
2023-05-22T06:31:14.503Z,15.50
2023-05-22T06:33:43.488Z,18.98
2023-05-22T06:36:11.751Z,19.15
2023-05-22T06:38:39.401Z,16.35
2023-05-22T06:41:06.578Z,15.18
2023-05-22T06:43:33.603Z,19.15
2023-05-22T06:46:00.437Z,18.67
2023-05-22T06:48:27.418Z,15.73
2023-05-22T06:50:54.288Z,15.45
2023-05-22T06:53:21.188Z,18.48
2023-05-22T06:55:48.126Z,16.65
2023-05-22T06:58:15.219Z,16.58
2023-05-22T07:00:42.334Z,15.45
2023-05-22T07:03:09.814Z,16.30
2023-05-22T07:05:37.048Z,15.80
2023-05-22T07:08:03.981Z,13.88
2023-05-22T07:10:30.852Z,15.23
2023-05-22T07:12:57.921Z,16.33
2023-05-22T07:15:24.765Z,19.25
2023-05-22T07:17:51.670Z,15.75
2023-05-22T07:20:18.512Z,16.15
2023-05-22T07:22:45.304Z,14.82
2023-05-22T07:25:12.216Z,13.88
2023-05-22T07:27:39.053Z,14.23
2023-05-22T07:30:06.609Z,14.18
2023-05-22T07:32:33.495Z,15.00
2023-05-22T07:35:00.615Z,18.05
2023-05-22T07:37:27.429Z,13.98
2023-05-22T07:39:54.292Z,14.30
2023-05-22T07:42:21.914Z,16.52
2023-05-22T07:44:48.869Z,14.32
2023-05-22T07:47:15.847Z,14.27
2023-05-22T07:49:43.199Z,13.15
2023-05-22T07:52:09.946Z,13.95
2023-05-22T07:54:36.799Z,13.43
2023-05-22T07:57:04.006Z,14.15
2023-05-22T07:59:30.824Z,13.48
2023-05-22T08:01:58.532Z,14.55
2023-05-22T08:04:26.482Z,12.85
2023-05-22T08:06:53.824Z,13.60
2023-05-22T08:09:21.668Z,13.40
2023-05-22T08:11:48.608Z,13.82
2023-05-22T08:14:15.624Z,12.88
2023-05-22T08:16:42.476Z,13.25
2023-05-22T08:19:09.520Z,13.35
2023-05-22T08:21:37.831Z,14.43
2023-05-22T08:24:04.908Z,15.13
2023-05-22T08:26:33.529Z,12.77
2023-05-22T08:29:00.959Z,13.07
2023-05-22T08:31:31.098Z,14.05
2023-05-22T08:34:02.862Z,13.68
2023-05-22T08:36:31.906Z,12.50
2023-05-22T08:38:58.722Z,12.93
2023-05-22T08:41:25.669Z,14.25
2023-05-22T08:43:52.688Z,13.13
2023-05-22T08:46:20.356Z,13.02
2023-05-22T08:48:47.530Z,11.80
2023-05-22T08:51:15.383Z,13.23
2023-05-22T08:53:42.476Z,14.13
2023-05-22T08:56:09.666Z,14.23
2023-05-22T08:58:36.938Z,11.75
2023-05-22T09:01:04.893Z,13.23
2023-05-22T09:03:35.354Z,12.88
2023-05-22T09:06:02.347Z,12.88
2023-05-22T09:08:29.340Z,13.15
2023-05-22T09:10:56.551Z,14.55
2023-05-22T09:13:30.666Z,13.00
2023-05-22T09:16:01.324Z,13.30
2023-05-22T09:18:29.083Z,12.98
2023-05-22T09:20:59.238Z,11.95
2023-05-22T09:23:28.262Z,15.35
2023-05-22T09:25:59.690Z,12.80
2023-05-22T09:28:26.746Z,13.00
2023-05-22T09:30:54.610Z,16.52
2023-05-22T09:33:22.687Z,13.07
2023-05-22T09:35:52.977Z,11.32
2023-05-22T09:38:19.929Z,14.73
2023-05-22T09:40:47.413Z,12.55
2023-05-22T09:43:17.856Z,13.52
2023-05-22T09:45:44.932Z,11.82
2023-05-22T09:48:12.846Z,13.10
2023-05-22T09:50:42.973Z,13.35
2023-05-22T09:53:09.918Z,13.25
2023-05-22T09:55:36.665Z,13.20
2023-05-22T09:58:04.400Z,13.45
2023-05-22T10:00:31.730Z,12.52
2023-05-22T10:03:03.645Z,12.52
2023-05-22T10:05:31.597Z,13.57
2023-05-22T10:08:03.504Z,12.98
2023-05-22T10:10:30.771Z,13.27
2023-05-22T10:12:58.528Z,12.43
2023-05-22T10:15:25.502Z,12.05
2023-05-22T10:17:52.348Z,12.32
2023-05-22T10:20:20.585Z,12.95
2023-05-22T10:22:49.211Z,12.67
2023-05-22T10:25:18.459Z,11.98
2023-05-22T10:27:45.479Z,12.35
2023-05-22T10:30:34.258Z,12.02
2023-05-22T10:33:06.471Z,12.88
2023-05-22T10:35:42.098Z,14.95
2023-05-22T10:38:15.353Z,16.35
2023-05-22T10:40:42.821Z,12.60
2023-05-22T10:43:09.666Z,12.57
2023-05-22T10:45:36.990Z,12.40
2023-05-22T10:48:12.215Z,16.67
2023-05-22T10:50:39.399Z,14.98
2023-05-22T10:53:25.847Z,13.05
2023-05-22T10:55:53.320Z,14.48
2023-05-22T10:58:28.046Z,13.52
2023-05-22T11:01:15.305Z,12.13
2023-05-22T11:04:07.276Z,11.75
2023-05-22T11:06:38.077Z,15.20
2023-05-22T11:09:33.789Z,15.32
2023-05-22T11:12:19.779Z,12.30
2023-05-22T11:14:57.451Z,13.10
2023-05-22T11:17:29.324Z,15.68
2023-05-22T11:20:00.706Z,12.93
2023-05-22T11:22:33.993Z,13.10
2023-05-22T11:25:01.014Z,13.82
2023-05-22T11:27:28.165Z,13.68
2023-05-22T11:29:55.156Z,14.10
2023-05-22T11:32:23.916Z,14.27
2023-05-22T11:37:20.823Z,12.88
2023-05-22T11:39:51.713Z,14.18
2023-05-22T11:42:19.670Z,13.55
2023-05-22T11:44:46.570Z,12.52
2023-05-22T11:47:13.664Z,11.77
2023-05-22T11:49:43.558Z,13.00
2023-05-22T11:52:10.816Z,12.65
2023-05-22T11:54:38.966Z,14.30
2023-05-22T11:57:07.823Z,15.32
2023-05-22T12:02:01.506Z,14.27
2023-05-22T12:04:28.280Z,13.82
2023-05-22T12:06:55.187Z,12.35
2023-05-22T12:09:22.313Z,13.45
2023-05-22T12:11:49.206Z,11.80
2023-05-22T12:14:16.032Z,12.48
2023-05-22T12:16:44.719Z,13.18
2023-05-22T12:19:12.407Z,14.38
2023-05-22T12:21:39.616Z,15.38
2023-05-22T12:24:06.725Z,12.48
2023-05-22T12:26:33.627Z,12.18
2023-05-22T12:29:00.628Z,13.20
2023-05-22T12:31:27.669Z,12.90
2023-05-22T12:33:55.261Z,12.15
2023-05-22T12:36:35.239Z,12.52
2023-05-22T12:39:02.775Z,12.00
2023-05-22T12:41:29.578Z,11.98
2023-05-22T12:43:56.452Z,14.48
2023-05-22T12:46:23.261Z,14.75
2023-05-22T12:48:50.112Z,12.45
2023-05-22T12:51:19.858Z,13.10
2023-05-22T12:53:46.917Z,12.13
2023-05-22T12:56:13.769Z,11.55
2023-05-22T12:58:40.808Z,14.07
2023-05-22T13:01:07.782Z,14.00
2023-05-22T13:03:35.080Z,12.68
2023-05-22T13:06:02.108Z,12.00
2023-05-22T13:08:28.890Z,11.05
2023-05-22T13:10:55.749Z,12.15
2023-05-22T13:13:23.042Z,12.13
2023-05-22T13:15:49.956Z,14.77
2023-05-22T13:18:16.799Z,16.10
2023-05-22T13:20:43.723Z,12.55
2023-05-22T13:23:10.682Z,12.10
2023-05-22T13:25:37.658Z,11.68
2023-05-22T13:28:04.666Z,11.27
2023-05-22T13:30:32.321Z,11.73
2023-05-22T13:32:59.242Z,12.27
2023-05-22T13:35:26.158Z,12.35
2023-05-22T13:37:53.038Z,12.50
2023-05-22T13:40:19.823Z,11.85
2023-05-22T13:42:46.926Z,15.68
2023-05-22T13:45:13.743Z,13.50
2023-05-22T13:47:40.633Z,14.88
2023-05-22T13:50:08.322Z,14.60
2023-05-22T13:52:35.226Z,13.95
2023-05-22T13:55:02.235Z,12.32
2023-05-22T13:57:29.110Z,13.18
2023-05-22T13:59:55.988Z,13.45
2023-05-22T14:02:22.979Z,12.93
2023-05-22T14:04:52.067Z,13.02
2023-05-22T14:09:45.858Z,13.75
2023-05-22T14:12:12.890Z,13.23
2023-05-22T14:14:39.726Z,12.18
2023-05-22T14:17:07.442Z,12.52
2023-05-22T14:19:34.701Z,14.48
2023-05-22T14:22:01.704Z,14.77
2023-05-22T14:24:28.533Z,13.10
2023-05-22T14:26:58.248Z,12.90
2023-05-22T14:29:26.003Z,12.77
2023-05-22T14:31:55.104Z,14.98
2023-05-22T14:36:48.701Z,13.00
2023-05-22T14:39:15.770Z,12.15
2023-05-22T14:41:42.675Z,13.30
2023-05-22T14:44:09.515Z,11.77
2023-05-22T14:46:36.383Z,13.25
2023-05-22T14:49:03.279Z,12.15
2023-05-22T14:51:30.091Z,11.68
2023-05-22T14:53:56.988Z,11.95
2023-05-22T14:56:24.638Z,11.30
2023-05-22T14:58:51.503Z,12.43
2023-05-22T15:01:19.250Z,11.95
2023-05-22T15:03:46.399Z,15.55
2023-05-22T15:06:19.134Z,12.95
2023-05-22T15:08:46.114Z,14.82
2023-05-22T15:11:12.888Z,12.40
2023-05-22T15:13:39.815Z,11.82
2023-05-22T15:16:06.653Z,11.10
2023-05-22T15:18:33.595Z,11.27
2023-05-22T15:21:01.418Z,12.43
2023-05-22T15:23:28.256Z,12.20
2023-05-22T15:25:55.154Z,11.30
2023-05-22T15:28:22.048Z,11.48
2023-05-22T15:30:49.090Z,14.30
2023-05-22T15:33:16.627Z,12.25
2023-05-22T15:35:47.711Z,11.95
2023-05-22T15:38:15.616Z,15.38
2023-05-22T15:40:43.112Z,15.50
2023-05-22T15:43:10.334Z,13.00
2023-05-22T15:45:37.909Z,14.75
2023-05-22T15:48:05.587Z,12.48
2023-05-22T15:50:33.727Z,14.48
2023-05-22T15:53:01.077Z,13.52
2023-05-22T15:55:28.458Z,15.80
2023-05-22T15:57:55.279Z,12.73
2023-05-22T16:00:22.239Z,12.85
2023-05-22T16:02:49.655Z,13.90
2023-05-22T16:05:16.572Z,13.55
2023-05-22T16:07:43.443Z,13.07
2023-05-22T16:10:10.819Z,15.80
2023-05-22T16:12:39.301Z,13.27
2023-05-22T16:15:07.236Z,15.70
2023-05-22T16:17:34.138Z,13.88
2023-05-22T16:20:01.081Z,18.27
2023-05-22T16:22:40.289Z,18.85
2023-05-22T16:25:15.772Z,24.92
2023-05-22T16:27:42.744Z,17.30
2023-05-22T16:30:11.336Z,14.20
2023-05-22T16:32:38.454Z,15.13
2023-05-22T16:35:05.780Z,14.95
2023-05-22T16:37:33.536Z,13.50
2023-05-22T16:40:00.671Z,14.18
2023-05-22T16:42:27.799Z,16.33
2023-05-22T16:44:54.575Z,14.77
2023-05-22T16:47:21.734Z,13.10
2023-05-22T16:49:48.644Z,15.27
2023-05-22T16:52:17.075Z,15.10
2023-05-22T16:54:43.855Z,14.47
2023-05-22T16:57:10.760Z,26.85
2023-05-22T16:59:37.606Z,21.52
2023-05-22T17:02:04.648Z,19.25
2023-05-22T17:04:31.644Z,19.27
2023-05-22T17:06:58.448Z,14.73
2023-05-22T17:09:25.262Z,18.15
2023-05-22T17:11:52.117Z,14.82
2023-05-22T17:14:21.751Z,14.35
2023-05-22T17:16:49.402Z,14.65
2023-05-22T17:19:17.873Z,15.20
2023-05-22T17:21:47.593Z,15.70
2023-05-22T17:24:14.858Z,13.05
2023-05-22T17:26:42.064Z,18.52
2023-05-22T17:29:09.640Z,16.08
2023-05-22T17:31:39.018Z,13.18
2023-05-22T17:34:06.411Z,15.90
2023-05-22T17:36:33.525Z,15.02
2023-05-22T17:39:00.791Z,13.68
2023-05-22T17:41:27.646Z,14.82
2023-05-22T17:43:55.997Z,14.70
2023-05-22T17:46:23.010Z,18.25
2023-05-22T17:48:49.919Z,14.30
2023-05-22T17:51:16.831Z,18.00
2023-05-22T17:53:43.620Z,20.90
2023-05-22T17:56:10.505Z,16.35
2023-05-22T17:58:37.283Z,19.33
2023-05-22T18:01:04.153Z,16.08
2023-05-22T18:03:31.588Z,15.93
2023-05-22T18:05:58.850Z,16.42
2023-05-22T18:08:25.755Z,16.90
2023-05-22T18:10:52.653Z,15.80
2023-05-22T18:13:19.776Z,16.23
2023-05-22T18:15:46.730Z,15.13
2023-05-22T18:18:13.593Z,16.80
2023-05-22T18:20:40.712Z,15.25
2023-05-22T18:23:07.717Z,14.88
2023-05-22T18:25:34.787Z,14.43
2023-05-22T18:28:01.602Z,15.57
2023-05-22T18:30:28.379Z,12.90
2023-05-22T18:32:55.420Z,13.20
2023-05-22T18:35:22.360Z,13.30
2023-05-22T18:37:49.143Z,13.05
2023-05-22T18:40:16.063Z,13.32
2023-05-22T18:42:43.660Z,15.07
2023-05-22T18:45:11.795Z,12.38
2023-05-22T18:47:38.755Z,13.68
2023-05-22T18:50:06.122Z,12.32
2023-05-22T18:52:32.898Z,12.48
2023-05-22T18:54:59.859Z,13.18
2023-05-22T18:57:26.807Z,13.18
2023-05-22T18:59:54.198Z,13.68
2023-05-22T19:02:22.188Z,16.17
2023-05-22T19:04:50.741Z,13.15
2023-05-22T19:07:17.622Z,14.77
2023-05-22T19:09:44.628Z,12.65
2023-05-22T19:12:11.434Z,12.98
2023-05-22T19:14:38.240Z,12.63
2023-05-22T19:17:05.434Z,12.90
2023-05-22T19:19:32.477Z,14.95
2023-05-22T19:21:59.344Z,11.80
2023-05-22T19:24:26.602Z,12.40
2023-05-22T19:26:53.371Z,12.35
2023-05-22T19:29:20.181Z,15.18
2023-05-22T19:31:47.190Z,16.52
2023-05-22T19:34:13.990Z,15.38
2023-05-22T19:36:40.759Z,14.27
2023-05-22T19:39:07.720Z,14.48
2023-05-22T19:41:34.492Z,14.05
2023-05-22T19:44:01.343Z,14.02
2023-05-22T19:46:28.412Z,13.77
2023-05-22T19:48:55.336Z,14.52
2023-05-22T19:51:22.274Z,16.13
2023-05-22T19:53:49.331Z,13.77
2023-05-22T19:56:16.151Z,14.90
2023-05-22T19:58:43.766Z,14.13
2023-05-22T20:01:10.634Z,14.70
2023-05-22T20:03:38.183Z,15.13
2023-05-22T20:06:05.243Z,14.30
2023-05-22T20:08:32.138Z,14.32
2023-05-22T20:10:58.914Z,14.70
2023-05-22T20:13:25.725Z,14.77
2023-05-22T20:15:53.639Z,15.88
2023-05-22T20:18:22.228Z,14.68
2023-05-22T20:20:49.060Z,13.87
2023-05-22T20:23:16.034Z,14.75
2023-05-22T20:25:42.936Z,16.25
2023-05-22T20:28:09.898Z,15.07
2023-05-22T20:30:36.886Z,14.32
2023-05-22T20:33:03.891Z,15.48
2023-05-22T20:35:31.100Z,15.27
2023-05-22T20:38:03.435Z,16.00
2023-05-22T20:40:34.852Z,14.57
2023-05-22T20:43:04.942Z,15.82
2023-05-22T20:45:32.355Z,17.30
2023-05-22T20:47:59.308Z,15.13
2023-05-22T20:50:26.418Z,13.82
2023-05-22T20:52:53.506Z,14.63
2023-05-22T20:55:20.969Z,14.05
2023-05-22T20:57:48.198Z,15.77
2023-05-22T21:00:15.061Z,15.32
2023-05-22T21:02:42.118Z,16.30
2023-05-22T21:05:09.577Z,15.60
2023-05-22T21:07:36.497Z,15.35
2023-05-22T21:10:03.565Z,16.13
2023-05-22T21:12:30.578Z,16.08
2023-05-22T21:14:57.511Z,15.23
2023-05-22T21:17:25.260Z,15.80
2023-05-22T21:19:52.374Z,17.17
2023-05-22T21:22:19.266Z,15.20
2023-05-22T21:24:46.143Z,17.17
2023-05-22T21:27:13.252Z,18.92
2023-05-22T21:29:40.109Z,16.38
2023-05-22T21:32:07.467Z,15.50
2023-05-22T21:34:34.450Z,16.25
2023-05-22T21:37:01.195Z,17.38
2023-05-22T21:39:28.029Z,14.88
2023-05-22T21:41:54.829Z,15.80
2023-05-22T21:44:21.589Z,16.15
2023-05-22T21:46:48.470Z,16.10
2023-05-22T21:49:15.393Z,18.40
2023-05-22T21:51:42.166Z,17.55
2023-05-22T21:54:08.963Z,16.33
2023-05-22T21:56:36.056Z,16.75
2023-05-22T21:59:03.552Z,18.17
2023-05-22T22:01:30.440Z,18.33
2023-05-22T22:03:57.368Z,18.52
2023-05-22T22:06:24.354Z,17.27
2023-05-22T22:08:53.253Z,18.25
2023-05-22T22:11:20.299Z,17.42
2023-05-22T22:13:47.095Z,16.85
2023-05-22T22:16:13.885Z,16.40
2023-05-22T22:18:41.177Z,16.98
2023-05-22T22:21:07.980Z,17.67
2023-05-22T22:23:34.764Z,20.90
2023-05-22T22:26:02.100Z,16.98
2023-05-22T22:28:29.225Z,18.17
2023-05-22T22:30:56.094Z,16.92
2023-05-22T22:33:23.089Z,16.75
2023-05-22T22:35:49.963Z,16.23
2023-05-22T22:38:16.873Z,16.77
2023-05-22T22:40:44.052Z,20.05
2023-05-22T22:43:11.042Z,19.92
2023-05-22T22:45:40.096Z,21.13
2023-05-22T22:48:07.330Z,18.67
2023-05-22T22:50:34.283Z,18.35
2023-05-22T22:53:01.188Z,18.50
2023-05-22T22:55:29.118Z,17.90
2023-05-22T22:57:56.154Z,18.50
2023-05-22T23:00:22.964Z,18.90
2023-05-22T23:02:49.851Z,20.05
2023-05-22T23:05:20.509Z,18.75
2023-05-22T23:07:47.867Z,19.35
2023-05-22T23:10:15.163Z,18.25
2023-05-22T23:12:42.120Z,18.98
2023-05-22T23:15:09.531Z,18.42
2023-05-22T23:17:36.386Z,20.27
2023-05-22T23:20:03.480Z,20.95
2023-05-22T23:22:30.600Z,17.13
2023-05-22T23:24:57.531Z,18.52
2023-05-22T23:27:24.319Z,19.00
2023-05-22T23:29:51.095Z,17.63
2023-05-22T23:32:17.952Z,18.20
2023-05-22T23:34:44.872Z,19.55
2023-05-22T23:37:11.680Z,19.52
2023-05-22T23:39:38.875Z,17.90
2023-05-22T23:42:05.986Z,17.58
2023-05-22T23:44:32.762Z,15.98
2023-05-22T23:46:59.703Z,16.90
2023-05-22T23:49:26.921Z,16.33
2023-05-22T23:51:53.836Z,16.05
2023-05-22T23:54:21.118Z,15.63
2023-05-22T23:56:47.993Z,15.80
2023-05-22T23:59:15.753Z,16.50
